Time;durP1;ratioP1;P1;durP2;ratioP2;P2;SDS_P1;SDS_P2;PMS_P1;PMS_P2;Temp;Humidity;BMP_temperature;BMP_pressure;BME280_temperature;BME280_humidity;BME280_pressure;Samples;Min_cycle;Max_cycle;Signal;HPM_P1;HPM_P2
2023/09/30 00:01:01;;;;;;;27.25;9.57;;;;;;;24.63;48.64;99501.66;5094167;28;20036;-45
2023/09/30 00:03:28;;;;;;;22.17;9.18;;;;;;;25.01;48.44;99504.75;5095190;28;20024;-45
2023/09/30 00:05:53;;;;;;;20.15;8.45;;;;;;;25.47;47.09;99501.84;5095336;28;20031;-45
2023/09/30 00:08:19;;;;;;;26.17;9.25;;;;;;;25.65;46.14;99511.94;5093583;28;20417;-45
2023/09/30 00:10:46;;;;;;;27.15;10.35;;;;;;;25.67;45.91;99512.47;5093672;28;20035;-45
2023/09/30 00:13:12;;;;;;;25.15;9.80;;;;;;;25.51;45.69;99509.09;5094886;28;20026;-46
2023/09/30 00:15:38;;;;;;;21.92;9.13;;;;;;;25.25;46.46;99511.13;5094911;28;20062;-45
2023/09/30 00:18:05;;;;;;;20.50;8.80;;;;;;;25.07;46.41;99515.22;5094845;28;20027;-45
2023/09/30 00:20:31;;;;;;;21.58;9.32;;;;;;;24.78;47.15;99504.31;5094669;28;20115;-45
2023/09/30 00:22:57;;;;;;;19.17;9.35;;;;;;;24.62;47.88;99508.13;5094734;28;20114;-45
2023/09/30 00:25:23;;;;;;;22.08;9.48;;;;;;;24.55;47.80;99507.59;5094670;28;20456;-46
2023/09/30 00:27:49;;;;;;;20.77;9.18;;;;;;;24.60;48.14;99504.91;5076708;28;20060;-45
2023/09/30 00:30:15;;;;;;;21.38;9.98;;;;;;;24.63;47.90;99496.31;5093213;28;20111;-45
2023/09/30 00:32:41;;;;;;;20.00;8.55;;;;;;;24.60;47.83;99502.22;5094482;28;20025;-45
2023/09/30 00:35:10;;;;;;;20.42;8.77;;;;;;;24.60;48.66;99497.66;5094768;28;20039;-45
2023/09/30 00:37:38;;;;;;;23.88;8.65;;;;;;;24.60;47.81;99497.66;5094152;28;20461;-45
2023/09/30 00:40:04;;;;;;;16.52;7.90;;;;;;;24.65;47.56;99503.03;5093106;28;20023;-45
2023/09/30 00:42:30;;;;;;;24.25;8.90;;;;;;;24.68;47.02;99507.03;5092989;28;20039;-45
2023/09/30 00:44:56;;;;;;;19.25;8.65;;;;;;;24.57;47.18;99495.53;5094343;28;20024;-45
2023/09/30 00:47:23;;;;;;;16.88;8.32;;;;;;;24.44;47.33;99496.06;5093448;28;20115;-45
2023/09/30 00:49:50;;;;;;;16.55;8.57;;;;;;;24.44;47.97;99496.88;5092895;28;20375;-45
2023/09/30 00:52:18;;;;;;;18.20;9.10;;;;;;;24.37;48.04;99495.53;5094053;28;20076;-45
2023/09/30 00:54:44;;;;;;;23.23;9.10;;;;;;;24.15;48.96;99499.34;5092847;28;20024;-45
2023/09/30 00:57:11;;;;;;;32.33;10.20;;;;;;;24.31;48.96;99500.94;5092696;28;20434;-45
2023/09/30 00:59:37;;;;;;;30.77;10.07;;;;;;;24.52;48.75;99498.22;5092702;28;20024;-45
2023/09/30 01:02:06;;;;;;;24.67;9.30;;;;;;;24.69;48.30;99495.25;5094141;28;20039;-45
2023/09/30 01:04:32;;;;;;;20.98;9.25;;;;;;;24.77;48.61;99492.00;5094257;28;20024;-45
2023/09/30 01:06:58;;;;;;;21.90;10.07;;;;;;;24.91;47.61;99492.19;5092544;28;20032;-45
2023/09/30 01:09:24;;;;;;;21.13;9.30;;;;;;;25.02;47.75;99498.31;5092347;28;20052;-45
2023/09/30 01:11:50;;;;;;;22.63;8.65;;;;;;;25.13;47.04;99497.19;5094027;28;20099;-46
2023/09/30 01:14:29;;;;;;;54.53;22.85;;;;;;;25.03;48.00;99497.22;5092305;28;20173;-45
2023/09/30 01:16:55;;;;;;;26.10;13.20;;;;;;;25.02;48.00;99495.63;5093635;28;20055;-45
2023/09/30 01:19:21;;;;;;;25.27;9.57;;;;;;;25.07;48.55;99498.28;5092651;28;20055;-45
2023/09/30 01:21:49;;;;;;;35.53;16.75;;;;;;;25.27;48.38;99492.84;5092262;28;20031;-45
2023/09/30 01:24:15;;;;;;;20.63;8.13;;;;;;;25.28;47.40;99488.28;5092231;28;20065;-45
2023/09/30 01:26:42;;;;;;;23.25;9.93;;;;;;;25.20;47.26;99481.56;5075467;28;20103;-46
2023/09/30 01:29:11;;;;;;;35.92;12.82;;;;;;;24.98;47.66;99483.84;5093423;28;20553;-45
2023/09/30 01:31:40;;;;;;;49.35;39.53;;;;;;;24.88;47.74;99487.38;5092018;28;20566;-45
2023/09/30 01:34:05;;;;;;;31.55;20.45;;;;;;;24.80;48.20;99480.69;5093276;28;20037;-45
2023/09/30 01:36:32;;;;;;;18.65;10.00;;;;;;;24.80;48.14;99472.63;5093257;28;20073;-45
2023/09/30 01:38:57;;;;;;;23.45;9.43;;;;;;;24.73;48.11;99469.44;5093270;28;20028;-45
2023/09/30 01:41:23;;;;;;;31.27;10.52;;;;;;;24.48;48.71;99468.41;5093131;28;20103;-45
2023/09/30 01:43:49;;;;;;;20.42;9.73;;;;;;;24.41;49.13;99464.41;5093181;28;20028;-45
2023/09/30 01:46:15;;;;;;;25.55;8.93;;;;;;;24.38;50.04;99464.97;5093064;28;20107;-45
2023/09/30 01:48:41;;;;;;;20.95;13.35;;;;;;;24.41;49.16;99459.84;5091085;28;20051;-45
2023/09/30 01:51:07;;;;;;;22.55;9.55;;;;;;;24.32;49.80;99469.53;5091378;28;20097;-45
2023/09/30 01:53:33;;;;;;;23.50;9.32;;;;;;;24.28;49.24;99461.22;5092941;28;20023;-45
2023/09/30 01:55:59;;;;;;;22.67;9.60;;;;;;;24.00;49.58;99451.88;5092917;28;20111;-45
2023/09/30 01:58:25;;;;;;;21.08;9.20;;;;;;;23.70;50.23;99453.50;5091589;28;20107;-45
2023/09/30 02:00:53;;;;;;;27.58;9.15;;;;;;;23.64;50.77;99456.41;5091478;28;20026;-45
2023/09/30 02:03:18;;;;;;;28.15;9.25;;;;;;;23.73;50.96;99463.66;5092772;28;20110;-45
2023/09/30 02:05:44;;;;;;;20.48;8.25;;;;;;;23.75;50.61;99466.06;5092805;28;20096;-46
2023/09/30 02:08:10;;;;;;;16.48;8.48;;;;;;;23.76;50.92;99461.50;5092462;28;20123;-45
2023/09/30 02:10:35;;;;;;;16.25;9.00;;;;;;;23.61;50.65;99456.97;5092636;28;20386;-45
2023/09/30 02:13:02;;;;;;;20.65;8.93;;;;;;;23.37;51.31;99473.53;5091292;28;20024;-45
2023/09/30 02:15:27;;;;;;;21.88;9.35;;;;;;;23.25;51.49;99470.31;5091566;28;20038;-45
2023/09/30 02:17:53;;;;;;;21.30;8.85;;;;;;;23.26;52.33;99456.66;5092460;28;20111;-45
2023/09/30 02:20:21;;;;;;;31.48;10.05;;;;;;;23.18;52.49;99459.84;5092480;28;20048;-45
2023/09/30 02:22:50;;;;;;;18.90;9.20;;;;;;;23.14;51.83;99453.41;5092454;28;20036;-45
2023/09/30 02:25:16;;;;;;;19.13;8.15;;;;;;;22.74;52.60;99457.53;5092401;28;20028;-45
2023/09/30 02:27:42;;;;;;;19.92;7.60;;;;;;;22.35;53.26;99452.50;5091145;28;20024;-45
2023/09/30 02:30:10;;;;;;;19.65;8.93;;;;;;;22.10;53.97;99447.81;5092251;28;20482;-45
2023/09/30 02:32:38;;;;;;;20.65;8.95;;;;;;;21.88;54.82;99450.59;5092257;28;20039;-45
2023/09/30 02:35:06;;;;;;;17.63;8.65;;;;;;;21.80;55.42;99451.06;5090925;28;20028;-45
2023/09/30 02:37:35;;;;;;;24.45;9.13;;;;;;;21.70;55.38;99454.44;5092146;28;20077;-45
2023/09/30 02:40:08;;;;;;;27.25;9.57;;;;;;;21.53;55.76;99457.22;5090931;28;20016;-45
2023/09/30 02:42:37;;;;;;;30.63;8.90;;;;;;;21.32;56.26;99458.88;5092127;28;20035;-45
2023/09/30 02:45:05;;;;;;;18.38;8.52;;;;;;;21.14;57.32;99462.69;5092016;28;20020;-45
2023/09/30 02:47:31;;;;;;;24.40;9.02;;;;;;;21.15;57.63;99461.66;5092084;28;20501;-45
2023/09/30 02:49:58;;;;;;;20.80;8.52;;;;;;;21.08;57.73;99461.81;5090783;28;20035;-45
2023/09/30 02:52:24;;;;;;;21.10;8.55;;;;;;;20.98;58.42;99468.91;5092167;28;20028;-45
2023/09/30 02:54:50;;;;;;;19.33;7.82;;;;;;;20.87;58.55;99471.47;5092232;28;20075;-45
2023/09/30 02:57:16;;;;;;;25.13;9.18;;;;;;;20.73;59.40;99473.69;5090654;28;20042;-45
2023/09/30 02:59:42;;;;;;;19.92;8.43;;;;;;;20.60;59.56;99482.03;5090619;28;20020;-44
2023/09/30 03:02:07;;;;;;;19.85;8.55;;;;;;;20.43;60.51;99476.72;5091649;28;20020;-45
2023/09/30 03:04:33;;;;;;;22.35;8.95;;;;;;;20.37;61.27;99469.72;5090904;28;20027;-45
2023/09/30 03:06:59;;;;;;;19.63;8.63;;;;;;;20.62;61.08;99463.94;5091802;28;20032;-45
2023/09/30 03:09:26;;;;;;;19.60;8.38;;;;;;;20.69;60.49;99466.44;5091645;28;20055;-45
2023/09/30 03:11:51;;;;;;;19.90;8.02;;;;;;;20.46;60.61;99470.88;5091832;28;20494;-45
2023/09/30 03:14:18;;;;;;;26.38;7.88;;;;;;;20.27;61.36;99466.91;5091707;28;20097;-45
2023/09/30 03:16:44;;;;;;;17.45;8.85;;;;;;;20.26;61.94;99470.59;5091972;28;20100;-45
2023/09/30 03:19:11;;;;;;;22.48;8.25;;;;;;;20.12;62.01;99460.31;5090681;28;20107;-45
2023/09/30 03:21:37;;;;;;;23.20;9.27;;;;;;;19.85;62.43;99459.34;5091713;28;20097;-45
2023/09/30 03:24:04;;;;;;;24.23;8.10;;;;;;;19.60;63.20;99465.84;5090334;28;20028;-45
2023/09/30 03:26:31;;;;;;;21.92;8.60;;;;;;;19.42;63.92;99471.34;5091678;28;20050;-45
2023/09/30 03:28:57;;;;;;;27.33;9.40;;;;;;;19.50;65.11;99479.78;5090328;28;20077;-45
2023/09/30 03:31:22;;;;;;;30.25;10.18;;;;;;;20.05;64.70;99478.31;5090577;28;20119;-45
2023/09/30 03:33:53;;;;;;;20.40;8.10;;;;;;;20.68;62.79;99472.81;5091562;28;20099;-45
2023/09/30 03:36:24;;;;;;;21.92;8.70;;;;;;;21.10;61.43;99467.72;5091514;28;20035;-45
2023/09/30 03:38:54;;;;;;;21.52;8.15;;;;;;;21.36;60.14;99457.31;5091619;28;20028;-45
2023/09/30 03:41:20;;;;;;;22.73;8.25;;;;;;;21.80;59.77;99453.72;5091481;28;20021;-45
2023/09/30 03:43:45;;;;;;;29.05;8.95;;;;;;;22.25;58.01;99457.81;5091500;28;20180;-45
2023/09/30 03:46:12;;;;;;;23.98;8.75;;;;;;;22.46;56.93;99458.75;5091502;28;20024;-45
2023/09/30 03:48:42;;;;;;;23.80;8.93;;;;;;;22.59;56.19;99457.47;5091521;28;20027;-45
2023/09/30 03:51:09;;;;;;;19.92;8.77;;;;;;;22.56;55.27;99444.59;5091742;28;20037;-45
2023/09/30 03:53:35;;;;;;;26.50;8.90;;;;;;;22.34;55.35;99450.91;5091357;28;20115;-45
2023/09/30 03:56:02;;;;;;;19.70;9.20;;;;;;;22.06;55.60;99452.84;5091640;28;20028;-45
2023/09/30 03:58:28;;;;;;;20.40;8.73;;;;;;;21.79;56.25;99463.59;5091657;28;20477;-45
2023/09/30 04:00:54;;;;;;;19.70;8.18;;;;;;;21.69;56.52;99456.31;5091355;28;20428;-44
2023/09/30 04:03:20;;;;;;;25.23;8.93;;;;;;;21.68;56.61;99459.25;5091375;28;20032;-45
2023/09/30 04:05:45;;;;;;;25.98;9.38;;;;;;;21.70;57.00;99457.91;5091588;28;20389;-45
2023/09/30 04:08:11;;;;;;;22.05;8.98;;;;;;;21.78;56.94;99464.66;5091017;28;20433;-45
2023/09/30 04:10:37;;;;;;;30.73;9.65;;;;;;;21.65;56.60;99460.56;5091525;28;20020;-45
2023/09/30 04:13:02;;;;;;;20.05;7.97;;;;;;;21.33;56.75;99458.63;5092872;28;20482;-45
2023/09/30 04:15:29;;;;;;;20.08;8.32;;;;;;;20.89;57.89;99466.69;5094879;28;20024;-45
2023/09/30 04:17:54;;;;;;;18.35;8.35;;;;;;;20.47;59.05;99471.72;5094916;28;20020;-45
2023/09/30 04:20:26;;;;;;;21.20;8.88;;;;;;;20.10;59.73;99467.75;5094782;28;20536;-45
2023/09/30 04:22:57;;;;;;;24.77;8.82;;;;;;;19.88;61.07;99461.50;5094768;28;20028;-45
2023/09/30 04:25:24;;;;;;;20.38;7.68;;;;;;;19.85;61.62;99464.66;5094755;28;20503;-45
2023/09/30 04:27:50;;;;;;;27.85;8.85;;;;;;;19.83;61.66;99467.56;5094705;28;20024;-45
2023/09/30 04:30:17;;;;;;;20.55;8.30;;;;;;;19.80;62.15;99469.91;5093280;28;20031;-45
2023/09/30 04:32:43;;;;;;;21.20;8.73;;;;;;;19.59;62.23;99471.41;5094488;28;20028;-45
2023/09/30 04:35:10;;;;;;;22.30;8.32;;;;;;;19.29;63.23;99469.78;5093240;28;20393;-45
2023/09/30 04:37:37;;;;;;;22.30;8.40;;;;;;;18.98;63.91;99479.84;5093164;28;20436;-45
2023/09/30 04:40:07;;;;;;;26.58;9.27;;;;;;;18.76;65.17;99480.44;5093349;28;20034;-45
2023/09/30 04:42:38;;;;;;;26.55;9.40;;;;;;;18.80;65.68;99480.03;5094688;28;20413;-45
2023/09/30 04:45:07;;;;;;;17.70;8.68;;;;;;;18.81;65.69;99476.31;5094367;28;20046;-45
2023/09/30 04:47:33;;;;;;;23.08;11.18;;;;;;;18.77;65.90;99473.28;5093031;28;20020;-45
2023/09/30 04:49:59;;;;;;;23.48;9.35;;;;;;;18.64;66.30;99482.31;5094516;28;20078;-45
2023/09/30 04:52:27;;;;;;;20.55;8.15;;;;;;;18.51;66.46;99488.69;5092864;28;20047;-45
2023/09/30 04:54:53;;;;;;;23.30;8.68;;;;;;;18.43;67.14;99497.03;5092905;28;20028;-45
2023/09/30 04:57:20;;;;;;;19.13;8.05;;;;;;;18.45;67.63;99497.59;5094126;28;20031;-45
2023/09/30 04:59:46;;;;;;;30.23;12.05;;;;;;;18.48;67.80;99491.00;5092776;28;20039;-45
2023/09/30 05:02:14;;;;;;;21.83;8.95;;;;;;;18.70;67.63;99499.19;5093986;28;20054;-45
2023/09/30 05:04:42;;;;;;;25.80;9.85;;;;;;;18.98;67.56;99495.03;5094218;28;20016;-45
2023/09/30 05:07:08;;;;;;;27.48;8.95;;;;;;;19.31;66.88;99495.13;5093918;28;20055;-45
2023/09/30 05:09:33;;;;;;;39.95;9.25;;;;;;;19.43;65.86;99496.94;5093680;28;20544;-45
2023/09/30 05:11:59;;;;;;;127.40;44.97;;;;;;;19.34;65.25;99502.63;5092787;28;20282;-45
2023/09/30 05:14:25;;;;;;;28.95;10.95;;;;;;;19.20;65.43;99506.63;5092394;28;20067;-45
2023/09/30 05:16:50;;;;;;;29.10;13.13;;;;;;;18.99;65.63;99509.91;5092460;28;20024;-45
2023/09/30 05:19:16;;;;;;;20.58;9.50;;;;;;;18.79;66.32;99507.63;5093725;28;20024;-45
2023/09/30 05:21:43;;;;;;;25.00;9.45;;;;;;;18.79;66.98;99504.94;5075475;28;20035;-45
2023/09/30 05:24:09;;;;;;;221.27;172.13;;;;;;;19.04;67.26;99505.50;5093490;28;20370;-45
2023/09/30 05:26:35;;;;;;;142.52;68.18;;;;;;;19.59;66.59;99509.47;5092502;28;20081;-45
2023/09/30 05:29:00;;;;;;;29.42;12.20;;;;;;;19.99;64.80;99503.25;5093468;28;20024;-45
2023/09/30 05:31:26;;;;;;;34.78;12.30;;;;;;;20.05;63.32;99504.94;5092085;28;20024;-45
2023/09/30 05:33:51;;;;;;;21.25;8.93;;;;;;;19.89;63.05;99505.75;5093339;28;20064;-45
2023/09/30 05:36:17;;;;;;;28.23;10.20;;;;;;;19.75;63.32;99502.59;5093357;28;20055;-45
2023/09/30 05:38:43;;;;;;;16.75;8.23;;;;;;;19.60;63.50;99510.28;5093559;28;20060;-45
2023/09/30 05:41:08;;;;;;;23.67;11.80;;;;;;;19.29;63.46;99507.84;5091918;28;20024;-44
2023/09/30 05:43:34;;;;;;;18.75;8.30;;;;;;;18.90;64.30;99512.94;5093414;28;20028;-45
2023/09/30 05:46:00;;;;;;;25.08;8.57;;;;;;;18.53;65.29;99515.03;5093120;28;20106;-44
2023/09/30 05:48:25;;;;;;;39.80;28.80;;;;;;;18.21;66.40;99518.03;5093135;28;20111;-45
2023/09/30 05:50:51;;;;;;;21.23;9.32;;;;;;;18.08;67.70;99529.69;5093076;28;20058;-44
2023/09/30 05:53:16;;;;;;;50.75;40.17;;;;;;;18.15;68.03;99526.94;5093215;28;20028;-45
2023/09/30 05:55:42;;;;;;;29.65;13.60;;;;;;;18.56;68.67;99527.88;5091940;28;20485;-45
2023/09/30 05:58:09;;;;;;;32.88;9.43;;;;;;;18.82;66.80;99526.59;5092932;28;20028;-45
2023/09/30 06:00:35;;;;;;;41.63;27.25;;;;;;;18.82;66.57;99521.28;5091552;28;20026;-45
2023/09/30 06:03:04;;;;;;;31.70;20.55;;;;;;;18.79;66.20;99527.06;5092818;28;20478;-45
2023/09/30 06:05:30;;;;;;;24.45;15.38;;;;;;;19.15;66.64;99533.13;5093124;28;20048;-45
2023/09/30 06:07:56;;;;;;;47.40;38.67;;;;;;;19.56;64.85;99531.25;5092340;28;20059;-45
2023/09/30 06:10:22;;;;;;;79.53;72.15;;;;;;;19.93;63.72;99542.31;5091451;28;20020;-44
2023/09/30 06:12:54;;;;;;;28.98;21.92;;;;;;;20.52;61.46;99533.09;5091250;28;20054;-45
2023/09/30 06:15:21;;;;;;;31.63;24.50;;;;;;;21.08;58.65;99530.41;5092898;28;20024;-45
2023/09/30 06:17:51;;;;;;;28.50;16.92;;;;;;;21.45;56.98;99525.28;5092510;28;20059;-45
2023/09/30 06:20:18;;;;;;;43.85;32.35;;;;;;;21.96;56.47;99530.28;5092426;28;20020;-45
2023/09/30 06:22:45;;;;;;;23.10;15.82;;;;;;;22.50;54.75;99526.72;5091174;28;20114;-45
2023/09/30 06:25:16;;;;;;;205.70;183.00;;;;;;;23.15;53.63;99521.16;5091100;28;20016;-45
2023/09/30 06:27:46;;;;;;;65.78;58.92;;;;;;;23.87;51.87;99527.50;5092475;28;20059;-45
2023/09/30 06:30:13;;;;;;;65.97;54.85;;;;;;;24.47;50.18;99533.09;5092354;28;20043;-45
2023/09/30 06:32:40;;;;;;;97.65;77.05;;;;;;;25.04;48.34;99536.44;5091013;28;20180;-45
2023/09/30 06:35:06;;;;;;;26.77;18.95;;;;;;;25.28;46.86;99544.69;5091720;28;20027;-45
2023/09/30 06:37:33;;;;;;;102.10;90.78;;;;;;;24.82;47.69;99542.97;5090913;28;20032;-45
2023/09/30 06:39:59;;;;;;;47.33;40.50;;;;;;;24.38;48.94;99554.28;5092115;28;20097;-45
2023/09/30 06:42:26;;;;;;;183.50;165.93;;;;;;;24.09;49.58;99548.69;5092150;28;20043;-45
2023/09/30 06:44:53;;;;;;;42.10;32.28;;;;;;;24.26;49.31;99553.78;5090959;28;20406;-45
2023/09/30 06:47:18;;;;;;;27.50;13.35;;;;;;;24.32;49.14;99560.75;5092102;28;20020;-45
2023/09/30 06:49:45;;;;;;;27.98;13.13;;;;;;;24.21;49.52;99568.00;5092059;28;20031;-45
2023/09/30 06:52:10;;;;;;;26.40;14.80;;;;;;;24.19;50.19;99564.78;5091964;28;20017;-45
2023/09/30 06:54:36;;;;;;;19.42;9.55;;;;;;;24.30;49.85;99570.94;5073865;28;20109;-46
2023/09/30 06:57:02;;;;;;;23.52;9.48;;;;;;;24.19;49.39;99577.41;5090600;28;20031;-45
2023/09/30 06:59:28;;;;;;;22.40;9.95;;;;;;;24.01;49.66;99571.47;5090671;28;20032;-45
2023/09/30 07:01:54;;;;;;;34.88;11.50;;;;;;;23.85;49.94;99567.97;5091909;28;20027;-46
2023/09/30 07:04:21;;;;;;;20.88;9.95;;;;;;;23.50;50.34;99565.97;5091856;28;20028;-45
2023/09/30 07:06:47;;;;;;;21.33;10.82;;;;;;;23.05;51.24;99570.91;5091793;28;20032;-45
2023/09/30 07:09:12;;;;;;;17.52;8.85;;;;;;;23.04;51.71;99572.00;5090477;28;20116;-45
2023/09/30 07:11:38;;;;;;;23.02;12.05;;;;;;;23.13;51.66;99569.63;5090510;28;20058;-45
2023/09/30 07:14:04;;;;;;;25.50;10.95;;;;;;;23.46;51.97;99572.94;5091752;28;20027;-45
2023/09/30 07:16:30;;;;;;;27.80;11.13;;;;;;;23.80;51.00;99567.97;5091791;28;20031;-45
2023/09/30 07:18:56;;;;;;;28.77;10.30;;;;;;;24.22;50.24;99577.66;5091756;28;20024;-45
2023/09/30 07:21:21;;;;;;;24.10;8.68;;;;;;;24.91;48.34;99568.19;5073582;28;20027;-45
2023/09/30 07:23:48;;;;;;;32.67;10.70;;;;;;;25.43;46.83;99578.75;5091662;28;20035;-45
2023/09/30 07:26:14;;;;;;;20.45;10.25;;;;;;;25.96;45.53;99579.00;5090369;28;20555;-45
2023/09/30 07:28:40;;;;;;;21.02;9.55;;;;;;;25.85;45.48;99580.13;5090388;28;20028;-45
2023/09/30 07:31:06;;;;;;;27.75;10.80;;;;;;;25.68;46.07;99591.25;5091628;28;20512;-45
2023/09/30 07:33:32;;;;;;;23.63;9.65;;;;;;;25.70;46.06;99584.50;5090269;28;20024;-45
2023/09/30 07:35:58;;;;;;;38.92;11.30;;;;;;;25.68;46.05;99584.00;5090327;28;20103;-45
2023/09/30 07:38:24;;;;;;;22.77;9.35;;;;;;;26.05;45.43;99588.06;5091658;28;20020;-46
2023/09/30 07:40:49;;;;;;;18.90;8.57;;;;;;;26.54;44.40;99578.25;5091500;28;20402;-45
2023/09/30 07:43:17;;;;;;;21.27;9.00;;;;;;;27.28;43.46;99588.78;5091621;28;20036;-45
2023/09/30 07:45:43;;;;;;;16.52;8.30;;;;;;;28.09;41.77;99584.16;5090282;28;20020;-45
2023/09/30 07:48:09;;;;;;;21.38;8.85;;;;;;;28.63;40.23;99589.19;5092178;28;20051;-45
2023/09/30 07:50:39;;;;;;;28.15;10.05;;;;;;;28.78;39.53;99580.03;5095356;28;20020;-46
2023/09/30 07:53:04;;;;;;;20.20;9.75;;;;;;;28.99;39.40;99580.41;5095243;28;20063;-46
2023/09/30 07:55:30;;;;;;;19.27;8.82;;;;;;;29.73;38.16;99577.53;5095301;28;20450;-45
2023/09/30 07:57:59;;;;;;;32.25;12.57;;;;;;;30.28;36.70;99576.47;5095241;28;20498;-46
2023/09/30 08:00:24;;;;;;;25.98;12.20;;;;;;;30.71;36.00;99575.13;5095144;28;20020;-46
2023/09/30 08:02:51;;;;;;;20.38;8.88;;;;;;;31.09;34.99;99580.06;5095171;28;20035;-46
2023/09/30 08:05:16;;;;;;;23.02;9.25;;;;;;;31.43;34.26;99576.63;5095091;28;20020;-46
2023/09/30 08:07:42;;;;;;;21.58;10.00;;;;;;;31.63;34.27;99570.63;5095532;28;20173;-46
2023/09/30 08:10:13;;;;;;;19.83;9.15;;;;;;;31.89;33.01;99571.72;5096824;28;20038;-46
2023/09/30 08:12:39;;;;;;;22.98;9.13;;;;;;;32.03;32.58;99575.84;5094872;28;20059;-46
2023/09/30 08:15:06;;;;;;;21.77;9.50;;;;;;;32.01;32.92;99580.03;5076793;28;20020;-45
2023/09/30 08:17:33;;;;;;;27.40;10.65;;;;;;;31.70;33.36;99583.69;5093593;28;20024;-46
2023/09/30 08:19:59;;;;;;;20.35;9.90;;;;;;;31.16;33.62;99583.91;5095085;28;20374;-46
2023/09/30 08:22:28;;;;;;;17.77;8.25;;;;;;;31.07;33.89;99577.69;5095101;28;20030;-45
2023/09/30 08:24:56;;;;;;;19.42;10.00;;;;;;;30.94;34.01;99590.22;5094772;28;20085;-45
2023/09/30 08:27:24;;;;;;;21.05;9.30;;;;;;;30.82;34.39;99593.50;5094611;28;20051;-45
2023/09/30 08:29:49;;;;;;;24.05;8.75;;;;;;;31.16;33.84;99592.06;5094610;28;20061;-46
2023/09/30 08:32:15;;;;;;;14.93;8.18;;;;;;;31.90;32.27;99589.59;5093284;28;20055;-46
2023/09/30 08:34:41;;;;;;;17.80;9.02;;;;;;;32.37;31.43;99597.84;5093162;28;20024;-46
2023/09/30 08:37:07;;;;;;;17.23;8.77;;;;;;;32.48;31.61;99590.97;5094512;28;20031;-46
2023/09/30 08:39:38;;;;;;;18.88;8.32;;;;;;;32.85;30.81;99583.16;5093157;28;20016;-46
2023/09/30 08:42:08;;;;;;;21.77;9.05;;;;;;;33.02;30.70;99587.69;5094745;28;20097;-46
2023/09/30 08:44:35;;;;;;;18.55;9.15;;;;;;;33.34;30.28;99588.97;5094596;28;20046;-46
2023/09/30 08:47:01;;;;;;;18.92;8.38;;;;;;;33.94;29.33;99588.84;5093270;28;20024;-46
2023/09/30 08:49:27;;;;;;;23.85;9.27;;;;;;;34.50;29.00;99585.75;5094310;28;20016;-46
2023/09/30 08:51:58;;;;;;;21.48;9.10;;;;;;;34.81;28.24;99585.22;5076114;28;20020;-46
2023/09/30 08:54:25;;;;;;;22.23;9.70;;;;;;;35.11;28.20;99584.97;5094210;28;20016;-46
2023/09/30 08:56:51;;;;;;;18.70;9.30;;;;;;;35.22;27.98;99577.94;5092779;28;20498;-46
2023/09/30 08:59:17;;;;;;;27.05;10.68;;;;;;;35.38;27.63;99573.38;5092364;28;20024;-46
2023/09/30 09:01:43;;;;;;;20.80;9.07;;;;;;;35.51;26.97;99574.13;5092686;28;20020;-46
2023/09/30 09:04:09;;;;;;;15.45;9.32;;;;;;;35.08;27.66;99578.28;5094017;28;20028;-46
2023/09/30 09:06:35;;;;;;;18.73;8.75;;;;;;;34.78;28.06;99580.47;5075980;28;20076;-46
2023/09/30 09:09:17;;;;;;;21.75;9.02;;;;;;;34.55;28.21;99575.41;5093708;28;20044;-46
2023/09/30 09:11:44;;;;;;;22.17;9.90;;;;;;;34.69;28.30;99574.31;5092446;28;20456;-46
2023/09/30 09:14:10;;;;;;;27.83;9.88;;;;;;;34.83;27.98;99568.50;5092425;28;20084;-46
2023/09/30 09:16:36;;;;;;;25.55;10.73;;;;;;;34.19;28.59;99566.03;5092399;28;20024;-46
2023/09/30 09:19:14;;;;;;;17.08;8.45;;;;;;;34.24;28.97;99565.03;5093959;28;20028;-45
2023/09/30 09:22:00;;;;;;;16.90;8.68;;;;;;;34.57;28.51;99555.97;5093624;28;20107;-46
2023/09/30 09:24:38;;;;;;;21.23;9.05;;;;;;;34.95;27.84;99555.69;5092361;28;20035;-46
2023/09/30 09:27:16;;;;;;;15.50;8.30;;;;;;;35.73;26.87;99541.97;5093556;28;20028;-46
2023/09/30 09:29:44;;;;;;;18.52;9.20;;;;;;;35.82;26.60;99539.91;5093766;28;20020;-46
2023/09/30 09:32:16;;;;;;;27.40;9.48;;;;;;;35.27;27.46;99544.94;5093441;28;20517;-46
2023/09/30 09:34:44;;;;;;;26.42;9.82;;;;;;;34.40;28.69;99546.09;5093296;28;20035;-46
2023/09/30 09:37:15;;;;;;;15.93;8.40;;;;;;;34.28;28.87;99549.59;5093339;28;20026;-46
2023/09/30 09:39:55;;;;;;;16.40;7.90;;;;;;;34.75;28.03;99562.84;5093342;28;20020;-46
2023/09/30 09:42:29;;;;;;;28.70;10.13;;;;;;;35.35;27.25;99554.94;5093591;28;20032;-46
2023/09/30 09:44:58;;;;;;;17.73;8.43;;;;;;;35.77;26.89;99551.06;5093300;28;20028;-46
2023/09/30 09:47:25;;;;;;;26.55;10.68;;;;;;;36.02;26.23;99557.22;5093159;28;20024;-46
2023/09/30 09:49:52;;;;;;;25.27;10.32;;;;;;;36.12;25.98;99553.97;5093211;28;20035;-47
2023/09/30 09:52:19;;;;;;;16.52;9.52;;;;;;;36.02;25.81;99548.22;5091765;28;20012;-47
2023/09/30 09:54:46;;;;;;;15.68;8.45;;;;;;;36.05;25.55;99548.31;5092944;28;20024;-47
2023/09/30 09:57:12;;;;;;;15.98;8.27;;;;;;;36.17;25.46;99550.22;5091674;28;20513;-46
2023/09/30 09:59:46;;;;;;;19.25;8.52;;;;;;;35.89;26.00;99548.28;5091614;28;20448;-46
2023/09/30 10:02:17;;;;;;;15.55;8.15;;;;;;;36.00;25.58;99541.16;5091734;28;20028;-46
2023/09/30 10:04:45;;;;;;;17.23;8.05;;;;;;;36.25;25.10;99545.72;5091686;28;20036;-46
2023/09/30 10:07:22;;;;;;;16.42;7.95;;;;;;;36.47;24.66;99544.31;5092746;28;20095;-46
2023/09/30 10:09:51;;;;;;;23.00;8.77;;;;;;;36.87;24.72;99543.31;5090713;28;20406;-46
2023/09/30 10:12:21;;;;;;;24.08;9.80;;;;;;;37.46;23.79;99539.53;5092896;28;20024;-47
2023/09/30 10:14:47;;;;;;;19.00;8.85;;;;;;;37.67;23.76;99543.84;5092858;28;20102;-46
2023/09/30 10:17:13;;;;;;;17.55;8.98;;;;;;;37.82;23.50;99537.50;5092618;28;20023;-46
2023/09/30 10:20:07;;;;;;;17.10;7.90;;;;;;;38.20;23.33;99532.34;5092493;28;20410;-46
2023/09/30 10:22:33;;;;;;;18.20;8.73;;;;;;;38.55;22.76;99519.19;5092526;28;20486;-47
2023/09/30 10:25:00;;;;;;;21.08;8.65;;;;;;;38.99;21.96;99530.84;5091139;28;20024;-46
2023/09/30 10:27:31;;;;;;;18.42;8.52;;;;;;;39.09;21.78;99522.72;5091109;28;20055;-47
2023/09/30 10:29:59;;;;;;;15.82;7.95;;;;;;;39.22;21.74;99519.75;5092400;28;20409;-47
2023/09/30 10:32:50;;;;;;;17.45;7.90;;;;;;;39.62;20.95;99510.81;5092858;28;20020;-47
2023/09/30 10:35:31;;;;;;;14.25;8.23;;;;;;;39.22;21.17;99523.31;5092304;28;20633;-47
2023/09/30 10:38:22;;;;;;;17.75;7.97;;;;;;;38.98;21.68;99526.50;5090960;28;20028;-46
2023/09/30 10:40:48;;;;;;;13.25;7.25;;;;;;;38.77;21.38;99516.78;5090881;28;20027;-47
2023/09/30 10:43:33;;;;;;;20.25;8.60;;;;;;;38.51;21.99;99512.06;5092178;28;20031;-46
2023/09/30 10:46:00;;;;;;;33.38;9.63;;;;;;;38.00;22.06;99512.38;5092412;28;20424;-46
2023/09/30 10:48:32;;;;;;;20.05;9.35;;;;;;;37.69;22.52;99508.66;5092686;28;20046;-46
2023/09/30 10:51:10;;;;;;;19.38;8.60;;;;;;;37.09;23.07;99509.00;5090834;28;20032;-47
2023/09/30 10:53:41;;;;;;;13.60;7.75;;;;;;;36.50;23.01;99508.03;5090729;28;20122;-46
2023/09/30 10:56:07;;;;;;;12.90;6.97;;;;;;;36.26;22.49;99514.50;5090771;28;20035;-46
2023/09/30 10:58:40;;;;;;;16.08;7.85;;;;;;;36.75;22.58;99511.41;5092254;28;20031;-46
2023/09/30 11:01:06;;;;;;;13.73;7.38;;;;;;;37.28;22.44;99511.78;5091936;28;20028;-46
2023/09/30 11:03:32;;;;;;;12.20;7.85;;;;;;;37.55;21.90;99507.25;5090638;28;20104;-46
2023/09/30 11:05:57;;;;;;;16.30;8.00;;;;;;;37.41;21.90;99514.38;5090576;28;20016;-46
2023/09/30 11:08:25;;;;;;;11.60;7.13;;;;;;;37.18;21.46;99507.66;5090475;28;20067;-46
2023/09/30 11:10:54;;;;;;;18.55;8.80;;;;;;;36.73;22.45;99500.81;5091896;28;20031;-46
2023/09/30 11:13:20;;;;;;;13.80;7.22;;;;;;;36.21;22.87;99512.03;5091784;28;20020;-45
2023/09/30 11:15:47;;;;;;;19.75;9.68;;;;;;;35.72;22.53;99513.09;5091800;28;20070;-46
2023/09/30 11:18:18;;;;;;;13.60;7.70;;;;;;;35.58;22.57;99499.81;5091746;28;20023;-46
2023/09/30 11:20:45;;;;;;;12.98;7.43;;;;;;;35.34;22.63;99500.72;5091751;28;20016;-46
2023/09/30 11:23:15;;;;;;;17.45;8.77;;;;;;;34.71;22.84;99518.31;5094319;28;20506;-46